Sand Point, AK

9:31 AM AKST on December 12, 2017 (GMT -0900)
Sand Point

Weather History for PASD - January, 2014

Change the Weather History Date:

Monday, January 13, 2014

  Actual Average Record
Temperature  
Mean Temperature 36 °F -  
Max Temperature 39 °F 33 °F 44 °F (2015)
Min Temperature 33 °F 27 °F 12 °F (2008)
Degree Days  
Heating Degree Days 29    
Moisture  
Dew Point 34 °F    
Average Humidity 92    
Maximum Humidity 100    
Minimum Humidity 81    
Precipitation  
Precipitation 0.00 in - - ()
Sea Level Pressure  
Sea Level Pressure 29.06 in    
Wind  
Wind Speed 14 mph (North)    
Max Wind Speed 26 mph    
Max Gust Speed 31 mph    
Visibility 7 miles    
Events      
Averages and records for this station are not official NWS values.
T = Trace of Precipitation, MM = Missing Value Source: NWS Daily Summary

Daily Weather History Graph

Daily Weather History Graph

Search for Another Location

Airport or City:

Trip Planner

Search our weather history database for the weather conditions in past years. The results will help you decide how hot, cold, wet, or windy it might be!

Date:

Astronomy

Jan. 13, 2014 Rise Set
Actual Time 10:01 AM AKST 5:41 PM AKST
Civil Twilight 9:17 AM AKST 6:24 PM AKST
Nautical Twilight 8:30 AM AKST 7:11 PM AKST
Astronomical Twilight 7:46 AM AKST 7:55 PM AKST
Moon 4:09 PM AKST (1/13) 7:56 AM AKST (1/13)
Length of Visible Light 9h 07m
Length of Day
7h 39m
Waxing Gibbous, 95% of the Moon is Illuminated
Jan 13
Waxing Gibbous
Jan 15
Full
Jan 23
Last Quarter
Jan 30
New
Feb 6
First Quarter

Hourly Weather History & Observations

Time (AKST) Temp. Windchill Dew Point Humidity Pressure Visibility Wind Dir Wind Speed Gust Speed Precip Events Conditions
12:16 AM 39.2 °F 29.0 °F 33.8 °F 81% 29.38 in 10.0 mi SSW 21.9 mph 31.1 mph N/A   Mostly Cloudy
12:36 AM 39.2 °F 29.3 °F 33.8 °F 81% 29.39 in 10.0 mi SSW 20.7 mph - N/A   Mostly Cloudy
12:56 AM 39.2 °F 29.0 °F 33.8 °F 81% 29.39 in 10.0 mi South 21.9 mph 26.5 mph N/A   Mostly Cloudy
1:16 AM 39.2 °F 29.8 °F 33.8 °F 81% 29.38 in 10.0 mi South 18.4 mph 23.0 mph N/A   Overcast
1:36 AM 39.2 °F 29.6 °F 33.8 °F 81% 29.38 in 10.0 mi South 19.6 mph 23.0 mph N/A   Mostly Cloudy
1:56 AM 39.2 °F 31.2 °F 33.8 °F 81% 29.38 in 10.0 mi South 13.8 mph - N/A   Mostly Cloudy
2:16 AM 39.2 °F 30.5 °F 35.6 °F 87% 29.38 in 10.0 mi South 16.1 mph - N/A   Overcast
2:36 AM 39.2 °F 30.5 °F 35.6 °F 87% 29.37 in 10.0 mi South 16.1 mph - N/A   Overcast
2:56 AM 39.2 °F 30.8 °F 35.6 °F 87% 29.37 in 10.0 mi South 15.0 mph - N/A   Overcast
3:16 AM 39.2 °F 33.0 °F 35.6 °F 87% 29.36 in 10.0 mi South 9.2 mph - N/A   Mostly Cloudy
3:36 AM 39.2 °F 30.5 °F 35.6 °F 87% 29.36 in 10.0 mi SSW 16.1 mph 24.2 mph N/A   Mostly Cloudy
3:56 AM 37.4 °F 30.3 °F 35.6 °F 93% 29.35 in 10.0 mi South 10.4 mph - N/A   Mostly Cloudy
4:16 AM 39.2 °F 34.2 °F 35.6 °F 87% 29.35 in 8.0 mi South 6.9 mph - N/A   Mostly Cloudy
4:36 AM 39.2 °F 32.5 °F 37.4 °F 93% 29.35 in 9.0 mi SSE 10.4 mph - N/A   Overcast
4:56 AM 39.2 °F 31.2 °F 37.4 °F 93% 29.33 in 10.0 mi South 13.8 mph - N/A   Overcast
5:16 AM 39.2 °F 33.0 °F 35.6 °F 87% 29.33 in 10.0 mi SSE 9.2 mph - N/A   Mostly Cloudy
5:36 AM 39.2 °F 33.0 °F 35.6 °F 87% 29.32 in 10.0 mi SSE 9.2 mph - N/A   Mostly Cloudy
5:56 AM 39.2 °F 33.6 °F 35.6 °F 87% 29.30 in 10.0 mi SSE 8.1 mph - N/A   Overcast
6:16 AM 39.2 °F 34.2 °F 35.6 °F 87% 29.29 in 10.0 mi SSE 6.9 mph - N/A   Mostly Cloudy
6:36 AM 37.4 °F - 35.6 °F 93% 29.28 in 10.0 mi Calm Calm - N/A   Overcast
6:56 AM 37.4 °F - 35.6 °F 93% 29.27 in 10.0 mi Calm Calm - N/A   Mostly Cloudy
7:16 AM 37.4 °F - 35.6 °F 93% 29.26 in 10.0 mi Calm Calm - N/A   Mostly Cloudy
7:36 AM 37.4 °F - 35.6 °F 93% 29.24 in 10.0 mi Calm Calm - N/A   Mostly Cloudy
7:56 AM 37.4 °F - 35.6 °F 93% 29.24 in 10.0 mi Calm Calm - N/A   Overcast
8:16 AM 37.4 °F - 35.6 °F 93% 29.23 in 10.0 mi Calm Calm - N/A   Overcast
8:36 AM 37.4 °F - 35.6 °F 93% 29.22 in 10.0 mi Calm Calm - N/A   Overcast
8:56 AM 37.4 °F - 33.8 °F 87% 29.20 in 10.0 mi Calm Calm - N/A   Overcast
9:16 AM 37.4 °F 34.9 °F 33.8 °F 87% 29.19 in 10.0 mi NE 3.5 mph - N/A   Overcast
9:36 AM 37.4 °F 34.9 °F 33.8 °F 87% 29.18 in 10.0 mi ENE 3.5 mph - N/A   Overcast
9:56 AM 37.4 °F 32.1 °F 33.8 °F 87% 29.17 in 10.0 mi NE 6.9 mph - N/A   Overcast
10:16 AM 37.4 °F 31.4 °F 33.8 °F 87% 29.15 in 10.0 mi NE 8.1 mph - N/A   Overcast
10:36 AM 35.6 °F 32.8 °F 33.8 °F 93% 29.14 in 4.0 mi NE 3.5 mph - N/A   Mostly Cloudy
10:56 AM 35.6 °F 30.7 °F 33.8 °F 93% 29.13 in 10.0 mi NE 5.8 mph 17.3 mph N/A   Overcast
11:16 AM 35.6 °F 29.9 °F 33.8 °F 93% 29.12 in 3.0 mi NE 6.9 mph - N/A   Overcast
11:36 AM 35.6 °F 29.2 °F 33.8 °F 93% 29.11 in 4.0 mi NNE 8.1 mph - N/A   Overcast
11:56 AM 35.6 °F 28.6 °F 33.8 °F 93% 29.08 in 3.0 mi NNE 9.2 mph 21.9 mph N/A   Overcast
12:16 PM 33.8 °F 25.3 °F 33.8 °F 100% 29.07 in 3.0 mi NE 11.5 mph 18.4 mph N/A   Overcast
12:36 PM 33.8 °F 25.8 °F 32.0 °F 93% 29.05 in 3.0 mi NNE 10.4 mph 20.7 mph N/A   Overcast
12:56 PM 33.8 °F 25.8 °F 32.0 °F 93% 29.03 in 3.0 mi NNE 10.4 mph 16.1 mph N/A   Overcast
1:16 PM 33.8 °F 25.8 °F 32.0 °F 93% 29.01 in 3.0 mi NNE 10.4 mph 17.3 mph N/A   Overcast
1:36 PM 33.8 °F 24.3 °F 32.0 °F 93% 28.99 in 2.0 mi NNE 13.8 mph 20.7 mph N/A   Overcast
1:56 PM 33.8 °F 24.3 °F 32.0 °F 93% 28.98 in 1.8 mi NNE 13.8 mph 19.6 mph N/A   Overcast
2:16 PM 33.8 °F 23.2 °F 33.8 °F 100% 28.95 in 1.8 mi NNE 17.3 mph 23.0 mph N/A   Overcast
2:36 PM 33.8 °F 24.3 °F 33.8 °F 100% 28.93 in 1.8 mi NNE 13.8 mph 21.9 mph N/A   Overcast
2:56 PM 33.8 °F 24.3 °F 33.8 °F 100% 28.90 in 2.0 mi North 13.8 mph - N/A   Overcast
3:16 PM 33.8 °F 23.5 °F 33.8 °F 100% 28.88 in 2.0 mi North 16.1 mph 23.0 mph N/A   Overcast
3:36 PM 33.8 °F 22.2 °F 33.8 °F 100% 28.86 in 2.0 mi North 20.7 mph 24.2 mph N/A   Overcast
3:56 PM 33.8 °F 22.2 °F 33.8 °F 100% 28.83 in 2.0 mi North 20.7 mph 24.2 mph N/A   Overcast
4:16 PM 33.8 °F 23.5 °F 33.8 °F 100% 28.82 in 2.0 mi North 16.1 mph - N/A   Overcast
4:36 PM 33.8 °F 22.8 °F 33.8 °F 100% 28.81 in 1.5 mi North 18.4 mph 23.0 mph N/A   Overcast
4:56 PM 33.8 °F 22.2 °F 33.8 °F 100% 28.80 in 2.0 mi North 20.7 mph - N/A   Overcast
5:16 PM 33.8 °F 22.2 °F 33.8 °F 100% 28.78 in 2.0 mi North 20.7 mph - N/A   Overcast
5:36 PM 33.8 °F 22.2 °F 33.8 °F 100% 28.77 in 2.0 mi North 20.7 mph 26.5 mph N/A   Overcast
5:56 PM 33.8 °F 21.0 °F 33.8 °F 100% 28.76 in 1.5 mi North 25.3 mph 28.8 mph N/A   Overcast
6:16 PM 33.8 °F 21.3 °F 33.8 °F 100% 28.76 in 1.5 mi North 24.2 mph 31.1 mph N/A   Overcast
6:36 PM 33.8 °F 21.6 °F 33.8 °F 100% 28.75 in 1.5 mi North 23.0 mph 27.6 mph N/A   Overcast
6:56 PM 35.6 °F 23.7 °F 33.8 °F 93% 28.75 in 3.0 mi NNW 24.2 mph 27.6 mph N/A   Overcast
7:16 PM 35.6 °F 24.2 °F 33.8 °F 93% 28.74 in 3.0 mi North 21.9 mph 31.1 mph N/A   Overcast
7:36 PM 35.6 °F 23.7 °F 33.8 °F 93% 28.74 in 3.0 mi North 24.2 mph 29.9 mph N/A   Overcast
7:56 PM 35.6 °F 24.8 °F 33.8 °F 93% 28.75 in 3.0 mi NNW 19.6 mph 25.3 mph N/A   Overcast
8:16 PM 35.6 °F 25.9 °F 33.8 °F 93% 28.75 in 10.0 mi NNW 16.1 mph - N/A   Overcast
8:36 PM 35.6 °F 26.6 °F 33.8 °F 93% 28.76 in 10.0 mi NW 13.8 mph - N/A   Mostly Cloudy
8:56 PM 35.6 °F 26.2 °F 33.8 °F 93% 28.76 in 10.0 mi WNW 15.0 mph - N/A   Mostly Cloudy
9:16 PM 35.6 °F 25.2 °F 33.8 °F 93% 28.78 in 10.0 mi WNW 18.4 mph 24.2 mph N/A   Mostly Cloudy
9:36 PM 35.6 °F 23.2 °F 33.8 °F 93% 28.78 in 10.0 mi NW 26.5 mph 29.9 mph N/A   Mostly Cloudy
9:56 PM 35.6 °F 25.5 °F 33.8 °F 93% 28.80 in 10.0 mi WNW 17.3 mph 25.3 mph N/A   Scattered Clouds
10:16 PM 35.6 °F 26.2 °F 33.8 °F 93% 28.82 in 10.0 mi NW 15.0 mph - N/A   Overcast
10:36 PM 35.6 °F 24.8 °F 33.8 °F 93% 28.84 in 10.0 mi WNW 19.6 mph 24.2 mph N/A   Overcast
10:56 PM 35.6 °F 25.9 °F 33.8 °F 93% 28.85 in 10.0 mi WNW 16.1 mph 19.6 mph N/A   Overcast
11:16 PM 35.6 °F 25.9 °F 33.8 °F 93% 28.86 in 10.0 mi WNW 16.1 mph - N/A   Overcast
11:36 PM 35.6 °F 24.8 °F 33.8 °F 93% 28.88 in 10.0 mi WNW 19.6 mph 23.0 mph N/A   Mostly Cloudy
11:56 PM 35.6 °F 25.2 °F 33.8 °F 93% 28.90 in 10.0 mi WNW 18.4 mph 25.3 mph N/A   Overcast